Ag Nektarios Aiginas — SX7083 — position and weather

sailwx.info

Track history (hours):
 
Tides and Currents Weather Stations Pressure Air Temp Water Temp Dewpoint Dewpoint Depression Visibility Wind Speed Wind Dir Waves Ship Positions

Ag Nektarios Aiginas

Last reported at 2014-Nov-26 18:33 UTC. Time now 2014-Nov-27 10:34 UTC.
Position N 37°57' E 023°39'.

Length 75 m; draft 2.7 m.

Type: Passenger vessel. MMSI: 237021400.

Date/timePositionNaut miles runAvg speedWind from/ knotsBaromVisibWave heightAir tempDewpointWater temp
2014-Nov-26 18:33N 37°57' E 023°39'1111.0
2014-Nov-26 17:33N 37°48' E 023°29'5 4.7
2014-Nov-26 16:33N 37°45' E 023°25'10 9.8
2014-Nov-26 15:34N 37°52' E 023°33'6 6.1
2014-Nov-26 14:33N 37°57' E 023°39'0 0.0
2014-Nov-26 11:34N 37°57' E 023°39'1110.8
2014-Nov-26 10:33N 37°49' E 023°29'5 4.9
2014-Nov-26 09:33N 37°45' E 023°25'1010.1
2014-Nov-26 08:34N 37°53' E 023°33'6 5.8
2014-Nov-26 07:34N 37°57' E 023°39'0 0.0
2014-Nov-25 18:33N 37°57' E 023°39'1211.6
2014-Nov-25 17:33N 37°48' E 023°28'4 4.2
2014-Nov-25 16:33N 37°45' E 023°25'1010.4
2014-Nov-25 15:33N 37°53' E 023°34'5 5.5
2014-Nov-25 14:33N 37°57' E 023°39'0 0.0
2014-Nov-25 11:33N 37°57' E 023°39'1211.9
2014-Nov-25 10:33N 37°48' E 023°28'4 3.9
2014-Nov-25 09:33N 37°45' E 023°25'9 9.3
2014-Nov-25 08:33N 37°52' E 023°33'7 6.5
2014-Nov-25 07:33N 37°57' E 023°39'0 0.0
2014-Nov-24 18:33N 37°57' E 023°38'1312.8
2014-Nov-24 17:33N 37°47' E 023°27'3 2.9
2014-Nov-24 16:33N 37°45' E 023°25'9 9.3
2014-Nov-24 15:33N 37°52' E 023°33'7 6.6
2014-Nov-24 14:33N 37°57' E 023°39'0 0.0
2014-Nov-24 11:33N 37°57' E 023°39'1111.0
2014-Nov-24 10:33N 37°48' E 023°29'5 4.8
2014-Nov-24 09:34N 37°45' E 023°25'10 9.6
2014-Nov-24 08:33N 37°52' E 023°33'6 6.2
2014-Nov-24 07:34N 37°57' E 023°39'0 0.0
2014-Nov-23 19:16N 37°57' E 023°39'5 7.2
2014-Nov-23 18:34N 37°53' E 023°34'1110.7
2014-Nov-23 17:34N 37°45' E 023°25'3 2.8
2014-Nov-23 16:33N 37°47' E 023°27'1313.1
2014-Nov-23 15:33N 37°57' E 023°38'4 4.5
2014-Nov-23 14:33N 37°53' E 023°34'1111.2
2014-Nov-23 13:33N 37°45' E 023°25'0 0.0
2014-Nov-23 12:33N 37°45' E 023°25'9 9.5
2014-Nov-23 11:34N 37°52' E 023°33'6 5.8
2014-Nov-23 10:33N 37°56' E 023°38'1111.3
2014-Nov-23 09:33N 37°48' E 023°28'4 4.0
2014-Nov-23 08:34N 37°45' E 023°25'10 9.5
2014-Nov-23 07:33N 37°52' E 023°34'6 6.2
2014-Nov-23 06:33N 37°57' E 023°38'0 0.0
2014-Nov-22 13:33N 37°57' E 023°38'1111.3
2014-Nov-22 12:34N 37°48' E 023°29'5 4.5
2014-Nov-22 11:33N 37°45' E 023°25'9 9.5
2014-Nov-22 10:33N 37°52' E 023°33'6 6.3
2014-Nov-22 09:34N 37°57' E 023°39'5 4.6
2014-Nov-22 08:33N 37°53' E 023°35'1111.1
2014-Nov-22 07:33N 37°45' E 023°25'4 3.9
2014-Nov-22 06:34N 37°48' E 023°28'1211.9
2014-Nov-22 05:33N 37°57' E 023°39'0 0.0
2014-Nov-21 19:13N 37°57' E 023°38'2 3.6
2014-Nov-21 18:33N 37°57' E 023°36'2 2.0
2014-Nov-21 17:33N 37°57' E 023°33'0 0.0
2014-Nov-21 16:33N 37°57' E 023°33'  
2014-Nov-18 09:04N 37°57' E 023°33'0 0.1
2014-Nov-18 08:33N 37°57' E 023°33'0 0.1
2014-Nov-18 07:34N 37°57' E 023°33'0 0.1
2014-Nov-18 06:34N 37°57' E 023°33'0 0.0
2014-Nov-16 20:31N 37°57' E 023°33'4 4.2
2014-Nov-16 19:33N 37°57' E 023°38'4 4.2
2014-Nov-16 18:33N 37°53' E 023°34'  
Track history (hours):
 
Tides and Currents Weather Stations Pressure Air Temp Water Temp Dewpoint Dewpoint Depression Visibility Wind Speed Wind Dir Waves Ship Positions

Ag Nektarios Aiginas

Last reported at 2014-Nov-26 18:33 UTC. Time now 2014-Nov-27 10:34 UTC.
Position N 37°57' E 023°39'.

Length 75 m; draft 2.7 m.

Type: Passenger vessel. MMSI: 237021400.

Date/timePositionNaut miles runAvg speedWind from/ knotsBaromVisibWave heightAir tempDewpointWater temp
2014-Nov-26 18:33N 37°57' E 023°39'1111.0
2014-Nov-26 17:33N 37°48' E 023°29'5 4.7
2014-Nov-26 16:33N 37°45' E 023°25'10 9.8
2014-Nov-26 15:34N 37°52' E 023°33'6 6.1
2014-Nov-26 14:33N 37°57' E 023°39'0 0.0
2014-Nov-26 11:34N 37°57' E 023°39'1110.8
2014-Nov-26 10:33N 37°49' E 023°29'5 4.9
2014-Nov-26 09:33N 37°45' E 023°25'1010.1
2014-Nov-26 08:34N 37°53' E 023°33'6 5.8
2014-Nov-26 07:34N 37°57' E 023°39'0 0.0
2014-Nov-25 18:33N 37°57' E 023°39'1211.6
2014-Nov-25 17:33N 37°48' E 023°28'4 4.2
2014-Nov-25 16:33N 37°45' E 023°25'1010.4
2014-Nov-25 15:33N 37°53' E 023°34'5 5.5
2014-Nov-25 14:33N 37°57' E 023°39'0 0.0
2014-Nov-25 11:33N 37°57' E 023°39'1211.9
2014-Nov-25 10:33N 37°48' E 023°28'4 3.9
2014-Nov-25 09:33N 37°45' E 023°25'9 9.3
2014-Nov-25 08:33N 37°52' E 023°33'7 6.5
2014-Nov-25 07:33N 37°57' E 023°39'0 0.0
2014-Nov-24 18:33N 37°57' E 023°38'1312.8
2014-Nov-24 17:33N 37°47' E 023°27'3 2.9
2014-Nov-24 16:33N 37°45' E 023°25'9 9.3
2014-Nov-24 15:33N 37°52' E 023°33'7 6.6
2014-Nov-24 14:33N 37°57' E 023°39'0 0.0
2014-Nov-24 11:33N 37°57' E 023°39'1111.0
2014-Nov-24 10:33N 37°48' E 023°29'5 4.8
2014-Nov-24 09:34N 37°45' E 023°25'10 9.6
2014-Nov-24 08:33N 37°52' E 023°33'6 6.2
2014-Nov-24 07:34N 37°57' E 023°39'0 0.0
2014-Nov-23 19:16N 37°57' E 023°39'5 7.2
2014-Nov-23 18:34N 37°53' E 023°34'1110.7
2014-Nov-23 17:34N 37°45' E 023°25'3 2.8
2014-Nov-23 16:33N 37°47' E 023°27'1313.1
2014-Nov-23 15:33N 37°57' E 023°38'4 4.5
2014-Nov-23 14:33N 37°53' E 023°34'1111.2
2014-Nov-23 13:33N 37°45' E 023°25'0 0.0
2014-Nov-23 12:33N 37°45' E 023°25'9 9.5
2014-Nov-23 11:34N 37°52' E 023°33'6 5.8
2014-Nov-23 10:33N 37°56' E 023°38'1111.3
2014-Nov-23 09:33N 37°48' E 023°28'4 4.0
2014-Nov-23 08:34N 37°45' E 023°25'10 9.5
2014-Nov-23 07:33N 37°52' E 023°34'6 6.2
2014-Nov-23 06:33N 37°57' E 023°38'0 0.0
2014-Nov-22 13:33N 37°57' E 023°38'1111.3
2014-Nov-22 12:34N 37°48' E 023°29'5 4.5
2014-Nov-22 11:33N 37°45' E 023°25'9 9.5
2014-Nov-22 10:33N 37°52' E 023°33'6 6.3
2014-Nov-22 09:34N 37°57' E 023°39'5 4.6
2014-Nov-22 08:33N 37°53' E 023°35'1111.1
2014-Nov-22 07:33N 37°45' E 023°25'4 3.9
2014-Nov-22 06:34N 37°48' E 023°28'1211.9
2014-Nov-22 05:33N 37°57' E 023°39'0 0.0
2014-Nov-21 19:13N 37°57' E 023°38'2 3.6
2014-Nov-21 18:33N 37°57' E 023°36'2 2.0
2014-Nov-21 17:33N 37°57' E 023°33'0 0.0
2014-Nov-21 16:33N 37°57' E 023°33'  
2014-Nov-18 09:04N 37°57' E 023°33'0 0.1
2014-Nov-18 08:33N 37°57' E 023°33'0 0.1
2014-Nov-18 07:34N 37°57' E 023°33'0 0.1
2014-Nov-18 06:34N 37°57' E 023°33'0 0.0
2014-Nov-16 20:31N 37°57' E 023°33'4 4.2
2014-Nov-16 19:33N 37°57' E 023°38'4 4.2
2014-Nov-16 18:33N 37°53' E 023°34'  

Dump ship's entire track history